createdAt,value
2017-10-05T00:01:10.174Z,100746.72
2017-10-05T00:03:37.657Z,100738.65
2017-10-05T00:06:05.119Z,100731.73
2017-10-05T00:08:32.602Z,100724.80
2017-10-05T00:11:00.054Z,100719.77
2017-10-05T00:13:27.516Z,100716.88
2017-10-05T00:15:55.092Z,100718.13
2017-10-05T00:18:22.576Z,100710.92
2017-10-05T00:20:50.098Z,100712.34
2017-10-05T00:23:17.561Z,100704.00
2017-10-05T00:25:45.062Z,100703.69
2017-10-05T00:28:12.536Z,100707.66
2017-10-05T00:30:40.014Z,100707.67
2017-10-05T00:33:07.501Z,100697.61
2017-10-05T00:35:34.985Z,100691.48
2017-10-05T00:38:02.450Z,100682.75
2017-10-05T00:40:29.928Z,100670.91
2017-10-05T00:42:57.388Z,100673.50
2017-10-05T00:45:24.864Z,100667.64
2017-10-05T00:47:52.320Z,100665.80
2017-10-05T00:50:19.801Z,100667.98
2017-10-05T00:52:47.258Z,100655.13
2017-10-05T00:55:14.753Z,100655.18
2017-10-05T00:57:42.204Z,100651.72
2017-10-05T01:00:09.703Z,100643.13
2017-10-05T01:02:37.188Z,100644.19
2017-10-05T01:05:04.746Z,100635.28
2017-10-05T01:07:32.212Z,100631.97
2017-10-05T01:09:59.655Z,100623.96
2017-10-05T01:12:27.138Z,100625.09
2017-10-05T01:14:54.595Z,100626.31
2017-10-05T01:17:22.087Z,100630.50
2017-10-05T01:19:49.536Z,100627.98
2017-10-05T01:22:17.019Z,100619.89
2017-10-05T01:24:44.468Z,100617.31
2017-10-05T01:27:11.943Z,100608.34
2017-10-05T01:29:39.428Z,100600.80
2017-10-05T01:32:06.905Z,100597.72
2017-10-05T01:34:34.399Z,100599.08
2017-10-05T01:37:01.875Z,100589.62
2017-10-05T01:39:29.324Z,100576.94
2017-10-05T01:41:56.775Z,100571.23
2017-10-05T01:44:24.248Z,100564.50
2017-10-05T01:46:51.694Z,100553.28
2017-10-05T01:49:19.263Z,100549.16
2017-10-05T01:51:46.724Z,100536.42
2017-10-05T01:54:14.203Z,100535.55
2017-10-05T01:56:41.674Z,100527.22
2017-10-05T01:59:09.147Z,100529.43
2017-10-05T02:01:36.599Z,100523.17
2017-10-05T02:04:04.182Z,100515.78
2017-10-05T02:06:31.629Z,100510.23
2017-10-05T02:08:59.103Z,100517.25
2017-10-05T02:11:26.571Z,100509.48
2017-10-05T02:13:54.051Z,100507.87
2017-10-05T02:16:21.566Z,100506.53
2017-10-05T02:18:49.006Z,100496.03
2017-10-05T02:21:16.475Z,100488.54
2017-10-05T02:23:43.938Z,100484.94
2017-10-05T02:26:11.420Z,100477.14
2017-10-05T02:28:38.952Z,100475.13
2017-10-05T02:31:06.427Z,100475.19
2017-10-05T02:33:33.888Z,100470.00
2017-10-05T02:36:01.371Z,100450.92
2017-10-05T02:38:28.828Z,100451.64
2017-10-05T02:40:56.336Z,100449.22
2017-10-05T02:43:23.916Z,100443.01
2017-10-05T02:45:51.394Z,100435.34
2017-10-05T02:48:18.843Z,100432.30
2017-10-05T02:50:46.343Z,100422.36
2017-10-05T02:53:13.812Z,100414.20
2017-10-05T02:55:41.320Z,100409.47
2017-10-05T02:58:08.767Z,100404.60
2017-10-05T03:00:36.315Z,100389.52
2017-10-05T03:03:03.855Z,100386.53
2017-10-05T03:05:31.341Z,100384.33
2017-10-05T03:07:58.869Z,100385.32
2017-10-05T03:10:26.321Z,100392.55
2017-10-05T03:12:53.890Z,100391.91
2017-10-05T03:15:21.340Z,100387.03
2017-10-05T03:17:48.807Z,100379.86
2017-10-05T03:20:16.360Z,100371.01
2017-10-05T03:22:43.879Z,100367.03
2017-10-05T03:25:11.331Z,100369.17
2017-10-05T03:27:38.816Z,100359.87
2017-10-05T03:30:06.268Z,100352.05
2017-10-05T03:32:33.748Z,100347.55
2017-10-05T03:35:01.223Z,100337.36
2017-10-05T03:37:28.757Z,100332.31
2017-10-05T03:39:56.228Z,100339.22
2017-10-05T03:42:23.679Z,100337.52
2017-10-05T03:44:51.232Z,100329.83
2017-10-05T03:47:18.679Z,100324.80
2017-10-05T03:49:46.151Z,100325.11
2017-10-05T03:52:13.615Z,100322.91
2017-10-05T03:54:41.139Z,100315.70
2017-10-05T03:57:08.590Z,100318.31
2017-10-05T03:59:36.060Z,100319.30
2017-10-05T04:02:03.504Z,100308.63
2017-10-05T04:04:31.084Z,100298.35
2017-10-05T04:06:58.531Z,100297.05
2017-10-05T04:09:26.003Z,100293.23
2017-10-05T04:11:53.455Z,100276.62
2017-10-05T04:14:20.928Z,100270.23
2017-10-05T04:16:48.377Z,100271.45
2017-10-05T04:19:15.869Z,100268.15
2017-10-05T04:21:43.332Z,100266.00
2017-10-05T04:24:10.838Z,100260.52
2017-10-05T04:26:38.308Z,100257.58
2017-10-05T04:29:05.781Z,100253.33
2017-10-05T04:31:33.243Z,100256.00
2017-10-05T04:34:00.742Z,100251.02
2017-10-05T04:36:28.199Z,100235.30
2017-10-05T04:38:55.663Z,100238.54
2017-10-05T04:41:23.102Z,100227.79
2017-10-05T04:43:50.572Z,100225.41
2017-10-05T04:46:18.063Z,100222.69
2017-10-05T04:48:45.519Z,100222.02
2017-10-05T04:51:12.995Z,100214.80
2017-10-05T04:53:40.447Z,100207.73
2017-10-05T04:56:07.927Z,100204.56
2017-10-05T04:58:35.380Z,100206.70
2017-10-05T05:01:02.852Z,100207.23
2017-10-05T05:03:30.318Z,100209.23
2017-10-05T05:05:57.810Z,100204.22
2017-10-05T05:08:25.363Z,100189.87
2017-10-05T05:10:52.855Z,100198.11
2017-10-05T05:13:20.303Z,100196.68
2017-10-05T05:15:47.778Z,100188.63
2017-10-05T05:18:15.230Z,100187.91
2017-10-05T05:20:42.756Z,100179.97
2017-10-05T05:23:10.215Z,100177.64
2017-10-05T05:25:37.712Z,100162.89
2017-10-05T05:28:05.180Z,100161.25
2017-10-05T05:30:32.630Z,100164.82
2017-10-05T05:33:00.100Z,100163.06
2017-10-05T05:35:27.547Z,100154.42
2017-10-05T05:37:55.025Z,100154.91
2017-10-05T05:40:22.479Z,100151.28
2017-10-05T05:42:49.944Z,100151.75
2017-10-05T05:45:17.414Z,100152.65
2017-10-05T05:47:44.883Z,100141.34
2017-10-05T05:50:12.333Z,100140.64
2017-10-05T05:52:39.831Z,100136.14
2017-10-05T05:55:07.283Z,100128.44
2017-10-05T05:57:34.816Z,100130.57
2017-10-05T06:00:02.263Z,100135.23
2017-10-05T06:02:29.736Z,100129.36
2017-10-05T06:04:57.199Z,100123.23
2017-10-05T06:07:24.651Z,100129.60
2017-10-05T06:09:52.136Z,100119.16
2017-10-05T06:12:19.588Z,100120.98
2017-10-05T06:14:47.056Z,100112.69
2017-10-05T06:17:14.554Z,100105.98
2017-10-05T06:19:42.025Z,100101.68
2017-10-05T06:22:09.575Z,100118.00
2017-10-05T06:24:37.043Z,100113.52
2017-10-05T06:27:04.494Z,100124.45
2017-10-05T06:29:32.008Z,100130.36
2017-10-05T06:31:59.455Z,100112.55
2017-10-05T06:34:26.956Z,100110.65
2017-10-05T06:36:54.433Z,100108.20
2017-10-05T06:39:21.917Z,100107.70
2017-10-05T06:41:49.374Z,100099.70
2017-10-05T06:44:16.843Z,100089.88
2017-10-05T06:46:44.291Z,100086.55
2017-10-05T06:49:11.794Z,100081.45
2017-10-05T06:51:39.305Z,100076.99
2017-10-05T06:54:06.809Z,100073.72
2017-10-05T06:56:34.301Z,100066.60
2017-10-05T06:59:01.764Z,100060.20
2017-10-05T07:01:29.247Z,100058.62
2017-10-05T07:03:56.699Z,100056.48
2017-10-05T07:06:24.175Z,100044.44
2017-10-05T07:08:51.653Z,100037.26
2017-10-05T07:11:19.119Z,100031.72
2017-10-05T07:13:46.586Z,100031.29
2017-10-05T07:16:14.059Z,100034.87
2017-10-05T07:18:41.515Z,100027.98
2017-10-05T07:21:08.996Z,100025.47
2017-10-05T07:23:36.463Z,100018.02
2017-10-05T07:26:03.931Z,100024.11
2017-10-05T07:28:31.380Z,100024.34
2017-10-05T07:30:58.851Z,100023.75
2017-10-05T07:33:26.330Z,100006.02
2017-10-05T07:35:53.808Z,100000.65
2017-10-05T07:38:21.260Z,99988.30
2017-10-05T07:40:48.711Z,99981.27
2017-10-05T07:43:16.242Z,99989.95
2017-10-05T07:45:43.699Z,99982.98
2017-10-05T07:48:11.263Z,99972.34
2017-10-05T07:50:38.713Z,99951.50
2017-10-05T07:53:06.249Z,99943.90
2017-10-05T07:55:33.701Z,99956.91
2017-10-05T07:58:01.185Z,99949.09
2017-10-05T08:00:28.634Z,99959.20
2017-10-05T08:02:56.191Z,99979.58
2017-10-05T08:05:23.679Z,99965.25
2017-10-05T08:07:51.144Z,99964.13
2017-10-05T08:10:18.588Z,99966.73
2017-10-05T08:12:46.059Z,99961.88
2017-10-05T08:15:13.515Z,99938.05
2017-10-05T08:17:40.976Z,99908.44
2017-10-05T08:20:08.428Z,99914.84
2017-10-05T08:22:35.960Z,99908.69
2017-10-05T08:25:03.416Z,99892.39
2017-10-05T08:27:30.970Z,99875.58
2017-10-05T08:29:58.411Z,99886.11
2017-10-05T08:32:25.891Z,99888.56
2017-10-05T08:34:53.704Z,99880.62
2017-10-05T08:37:21.162Z,99868.36
2017-10-05T08:39:48.648Z,99874.70
2017-10-05T08:42:16.091Z,99870.84
2017-10-05T08:44:43.546Z,99852.09
2017-10-05T08:47:11.036Z,99869.88
2017-10-05T08:49:38.499Z,99858.23
2017-10-05T08:52:05.948Z,99873.98
2017-10-05T08:54:33.520Z,99861.53
2017-10-05T08:57:01.084Z,99854.53
2017-10-05T08:59:28.629Z,99851.72
2017-10-05T09:01:56.083Z,99835.00
2017-10-05T09:04:23.591Z,99849.69
2017-10-05T09:06:51.099Z,99836.72
2017-10-05T09:09:18.566Z,99836.03
2017-10-05T09:11:46.037Z,99829.13
2017-10-05T09:14:13.563Z,99831.89
2017-10-05T09:16:41.040Z,99822.84
2017-10-05T09:19:08.483Z,99810.44
2017-10-05T09:21:35.967Z,99821.02
2017-10-05T09:24:03.500Z,99808.66
2017-10-05T09:26:31.051Z,99808.96
2017-10-05T09:28:58.491Z,99801.48
2017-10-05T09:31:25.964Z,99795.53
2017-10-05T09:33:53.403Z,99816.09
2017-10-05T09:36:20.899Z,99829.37
2017-10-05T09:38:48.339Z,99835.97
2017-10-05T09:41:15.804Z,99853.78
2017-10-05T09:43:43.273Z,99842.80
2017-10-05T09:46:10.735Z,99834.25
2017-10-05T09:48:38.184Z,99831.50
2017-10-05T09:51:05.687Z,99850.30
2017-10-05T09:53:33.132Z,99846.38
2017-10-05T09:56:00.616Z,99875.84
2017-10-05T09:58:28.083Z,99885.03
2017-10-05T10:00:55.544Z,99877.61
2017-10-05T10:03:23.056Z,99879.27
2017-10-05T10:05:50.502Z,99876.04
2017-10-05T10:08:17.972Z,99882.67
2017-10-05T10:10:45.415Z,99866.78
2017-10-05T10:13:12.933Z,99889.89
2017-10-05T10:15:40.400Z,99891.81
2017-10-05T10:18:07.866Z,99889.11
2017-10-05T10:20:35.410Z,99885.36
2017-10-05T10:23:02.875Z,99899.34
2017-10-05T10:25:30.417Z,99897.46
2017-10-05T10:27:57.919Z,99912.00
2017-10-05T10:30:25.395Z,99914.70
2017-10-05T10:32:52.871Z,99899.99
2017-10-05T10:35:20.354Z,99887.61
2017-10-05T10:37:47.918Z,99896.60
2017-10-05T10:40:15.394Z,99889.73
2017-10-05T10:42:42.872Z,99897.72
2017-10-05T10:45:10.433Z,99902.72
2017-10-05T10:47:37.940Z,99899.72
2017-10-05T10:50:05.497Z,99889.59
2017-10-05T10:52:32.953Z,99894.87
2017-10-05T10:55:00.415Z,99883.90
2017-10-05T10:57:27.969Z,99894.88
2017-10-05T10:59:55.467Z,99902.25
2017-10-05T11:02:22.929Z,99905.88
2017-10-05T11:04:50.507Z,99893.02
2017-10-05T11:07:17.952Z,99903.81
2017-10-05T11:09:45.418Z,99909.22
2017-10-05T11:12:12.863Z,99918.27
2017-10-05T11:14:40.369Z,99926.98
2017-10-05T11:17:07.853Z,99921.05
2017-10-05T11:19:35.324Z,99919.22
2017-10-05T11:22:02.772Z,99920.96
2017-10-05T11:24:30.233Z,99911.87
2017-10-05T11:26:57.687Z,99913.33
2017-10-05T11:29:25.211Z,99907.09
2017-10-05T11:31:52.771Z,99908.20
2017-10-05T11:34:20.247Z,99902.72
2017-10-05T11:36:47.784Z,99900.45
2017-10-05T11:39:15.251Z,99905.91
2017-10-05T11:41:42.700Z,99907.94
2017-10-05T11:44:10.258Z,99916.48
2017-10-05T11:46:37.705Z,99916.91
2017-10-05T11:49:05.187Z,99903.98
2017-10-05T11:51:32.632Z,99904.59
2017-10-05T11:54:00.150Z,99898.19
2017-10-05T11:56:27.615Z,99902.28
2017-10-05T11:58:55.093Z,99898.45
2017-10-05T12:01:22.531Z,99898.63
2017-10-05T12:03:50.035Z,99890.34
2017-10-05T12:06:17.518Z,99884.59
2017-10-05T12:08:45.029Z,99889.00
2017-10-05T12:11:12.524Z,99888.18
2017-10-05T12:13:40.040Z,99878.89
2017-10-05T12:16:07.523Z,99881.33
2017-10-05T12:18:35.082Z,99880.75
2017-10-05T12:21:02.616Z,99875.05
2017-10-05T12:23:30.060Z,99874.62
2017-10-05T12:25:57.526Z,99865.33
2017-10-05T12:28:24.996Z,99864.75
2017-10-05T12:30:52.551Z,99868.16
2017-10-05T12:33:20.007Z,99875.97
2017-10-05T12:35:47.472Z,99879.52
2017-10-05T12:38:14.927Z,99873.48
2017-10-05T12:40:42.427Z,99868.83
2017-10-05T12:43:09.878Z,99870.50
2017-10-05T12:45:37.344Z,99869.92
2017-10-05T12:48:04.792Z,99854.89
2017-10-05T12:50:32.259Z,99856.77
2017-10-05T12:52:59.702Z,99851.64
2017-10-05T12:55:27.216Z,99850.09
2017-10-05T12:57:54.666Z,99852.30
2017-10-05T13:00:22.127Z,99860.11
2017-10-05T13:02:49.576Z,99853.98
2017-10-05T13:05:17.044Z,99859.59
2017-10-05T13:07:44.492Z,99853.68
2017-10-05T13:10:11.955Z,99864.76
2017-10-05T13:12:39.402Z,99860.42
2017-10-05T13:15:06.967Z,99873.84
2017-10-05T13:17:34.412Z,99877.21
2017-10-05T13:20:01.931Z,99887.27
2017-10-05T13:22:29.396Z,99883.73
2017-10-05T13:24:56.871Z,99887.73
2017-10-05T13:27:24.324Z,99905.12
2017-10-05T13:29:51.812Z,99907.77
2017-10-05T13:32:19.261Z,99910.55
2017-10-05T13:34:46.749Z,99932.89
2017-10-05T13:37:14.225Z,99931.06
2017-10-05T13:39:41.732Z,99939.30
2017-10-05T13:42:09.290Z,99946.25
2017-10-05T13:44:36.769Z,99937.44
2017-10-05T13:47:04.249Z,99958.03
2017-10-05T13:49:31.769Z,99965.36
2017-10-05T13:51:59.235Z,99953.69
2017-10-05T13:54:26.679Z,99972.13
2017-10-05T13:56:54.164Z,99980.75
2017-10-05T13:59:21.615Z,99979.85
2017-10-05T14:01:49.082Z,99991.53
2017-10-05T14:04:16.532Z,100004.62
2017-10-05T14:06:44.039Z,100033.94
2017-10-05T14:09:11.484Z,100042.97
2017-10-05T14:11:38.955Z,100048.10
2017-10-05T14:14:06.403Z,100040.70
2017-10-05T14:16:33.867Z,100055.55
2017-10-05T14:19:01.325Z,100061.86
2017-10-05T14:21:28.803Z,100059.53
2017-10-05T14:23:56.243Z,100067.14
2017-10-05T14:26:23.714Z,100064.77
2017-10-05T14:28:51.169Z,100068.27
2017-10-05T14:31:18.635Z,100077.02
2017-10-05T14:33:46.083Z,100075.64
2017-10-05T14:36:13.573Z,100071.28
2017-10-05T14:38:41.097Z,100066.49
2017-10-05T14:41:08.657Z,100072.28
2017-10-05T14:43:36.125Z,100075.30
2017-10-05T14:46:03.624Z,100083.45
2017-10-05T14:48:31.111Z,100082.84
2017-10-05T14:50:58.575Z,100099.49
2017-10-05T14:53:26.051Z,100098.45
2017-10-05T14:55:53.536Z,100096.02
2017-10-05T14:58:21.167Z,100098.62
2017-10-05T15:00:48.616Z,100101.45
2017-10-05T15:03:16.092Z,100102.75
2017-10-05T15:05:43.584Z,100104.93
2017-10-05T15:08:11.092Z,100091.45
2017-10-05T15:10:38.592Z,100096.78
2017-10-05T15:13:06.080Z,100098.75
2017-10-05T15:15:33.578Z,100102.25
2017-10-05T15:18:01.153Z,100107.69
2017-10-05T15:20:28.679Z,100106.47
2017-10-05T15:22:56.156Z,100117.58
2017-10-05T15:25:23.620Z,100117.55
2017-10-05T15:27:51.096Z,100126.61
2017-10-05T15:30:18.546Z,100132.13
2017-10-05T15:32:46.001Z,100132.78
2017-10-05T15:35:13.518Z,100142.52
2017-10-05T15:37:40.958Z,100140.81
2017-10-05T15:40:08.463Z,100137.75
2017-10-05T15:42:35.990Z,100139.36
2017-10-05T15:45:03.481Z,100143.72
2017-10-05T15:47:30.940Z,100152.73
2017-10-05T15:49:58.411Z,100154.02
2017-10-05T15:52:25.855Z,100151.36
2017-10-05T15:54:53.673Z,100163.58
2017-10-05T15:57:21.119Z,100158.19
2017-10-05T15:59:48.584Z,100167.70
2017-10-05T16:02:16.052Z,100169.41
2017-10-05T16:04:43.527Z,100172.34
2017-10-05T16:07:10.975Z,100179.64
2017-10-05T16:09:38.674Z,100181.53
2017-10-05T16:12:06.220Z,100187.16
2017-10-05T16:14:33.777Z,100191.24
2017-10-05T16:17:01.232Z,100200.30
2017-10-05T16:19:28.777Z,100210.54
2017-10-05T16:21:56.318Z,100202.69
2017-10-05T16:24:23.787Z,100203.61
2017-10-05T16:26:51.238Z,100214.88
2017-10-05T16:29:18.722Z,100221.44
2017-10-05T16:31:46.163Z,100219.11
2017-10-05T16:34:13.702Z,100222.80
2017-10-05T16:36:41.151Z,100226.16
2017-10-05T16:39:08.718Z,100224.05
2017-10-05T16:41:36.163Z,100225.88
2017-10-05T16:44:03.634Z,100222.66
2017-10-05T16:46:31.087Z,100231.16
2017-10-05T16:48:58.645Z,100241.02
2017-10-05T16:51:26.139Z,100246.11
2017-10-05T16:53:53.615Z,100245.86
2017-10-05T16:56:21.104Z,100253.26
2017-10-05T16:58:48.583Z,100250.95
2017-10-05T17:01:16.060Z,100250.66
2017-10-05T17:03:43.538Z,100259.98
2017-10-05T17:06:11.057Z,100265.08
2017-10-05T17:08:38.515Z,100271.95
2017-10-05T17:11:05.991Z,100279.17
2017-10-05T17:13:33.447Z,100285.06
2017-10-05T17:16:00.932Z,100293.22
2017-10-05T17:18:28.391Z,100298.09
2017-10-05T17:20:55.875Z,100302.09
2017-10-05T17:23:23.540Z,100307.55
2017-10-05T17:25:51.001Z,100310.66
2017-10-05T17:28:18.447Z,100313.88
2017-10-05T17:30:45.935Z,100314.22
2017-10-05T17:33:13.391Z,100317.53
2017-10-05T17:35:40.933Z,100329.38
2017-10-05T17:38:08.405Z,100329.20
2017-10-05T17:40:35.876Z,100340.28
2017-10-05T17:43:03.405Z,100347.52
2017-10-05T17:45:30.872Z,100340.71
2017-10-05T17:47:58.328Z,100351.20
2017-10-05T17:50:25.876Z,100358.34
2017-10-05T17:52:53.419Z,100360.98
2017-10-05T17:55:20.999Z,100369.56
2017-10-05T17:57:48.459Z,100364.40
2017-10-05T18:00:15.935Z,100371.14
2017-10-05T18:02:43.391Z,100373.47
2017-10-05T18:05:10.836Z,100371.56
2017-10-05T18:07:38.307Z,100377.00
2017-10-05T18:10:05.837Z,100374.02
2017-10-05T18:12:33.394Z,100385.21
2017-10-05T18:15:00.844Z,100390.26
2017-10-05T18:17:28.326Z,100395.68
2017-10-05T18:19:55.779Z,100387.09
2017-10-05T18:22:23.251Z,100384.47
2017-10-05T18:24:50.783Z,100392.25
2017-10-05T18:27:18.292Z,100392.83
2017-10-05T18:29:45.770Z,100396.48
2017-10-05T18:32:13.304Z,100400.76
2017-10-05T18:34:40.776Z,100395.02
2017-10-05T18:37:09.216Z,100403.17
2017-10-05T18:39:36.707Z,100405.96
2017-10-05T18:42:04.179Z,100405.25
2017-10-05T18:44:31.644Z,100411.10
2017-10-05T18:46:59.135Z,100410.52
2017-10-05T18:49:26.583Z,100405.52
2017-10-05T18:51:54.056Z,100407.41
2017-10-05T18:54:21.516Z,100417.06
2017-10-05T18:56:48.993Z,100420.09
2017-10-05T18:59:16.435Z,100419.11
2017-10-05T19:01:43.905Z,100418.62
2017-10-05T19:04:11.384Z,100427.61
2017-10-05T19:06:38.865Z,100420.55
2017-10-05T19:09:06.327Z,100430.63
2017-10-05T19:11:33.813Z,100425.11
2017-10-05T19:14:01.268Z,100432.08
2017-10-05T19:16:28.730Z,100431.22
2017-10-05T19:18:56.219Z,100436.80
2017-10-05T19:21:23.677Z,100441.18
2017-10-05T19:23:51.376Z,100436.09
2017-10-05T19:26:18.833Z,100448.59
2017-10-05T19:28:46.348Z,100449.63
2017-10-05T19:31:13.809Z,100456.09
2017-10-05T19:33:41.365Z,100455.84
2017-10-05T19:36:08.831Z,100456.42
2017-10-05T19:38:36.321Z,100460.37
2017-10-05T19:41:03.798Z,100463.59
2017-10-05T19:43:31.281Z,100462.06
2017-10-05T19:45:58.777Z,100464.95
2017-10-05T19:48:26.253Z,100461.76
2017-10-05T19:50:53.701Z,100469.41
2017-10-05T19:53:21.177Z,100480.91
2017-10-05T19:55:48.640Z,100476.09
2017-10-05T19:58:16.276Z,100477.02
2017-10-05T20:00:43.745Z,100484.06
2017-10-05T20:03:11.220Z,100485.54
2017-10-05T20:05:38.749Z,100489.42
2017-10-05T20:08:06.220Z,100485.50
2017-10-05T20:10:33.672Z,100492.81
2017-10-05T20:13:01.154Z,100494.57
2017-10-05T20:15:32.589Z,100503.34
2017-10-05T20:18:10.905Z,100502.28
2017-10-05T20:20:41.710Z,100499.33
2017-10-05T20:26:34.600Z,100502.67
2017-10-05T20:29:03.016Z,100506.81
2017-10-05T20:34:35.232Z,100516.78
2017-10-05T20:37:02.708Z,100519.02
2017-10-05T20:39:30.224Z,100521.99
2017-10-05T20:41:57.793Z,100517.88
2017-10-05T20:44:25.285Z,100515.22
2017-10-05T20:46:52.733Z,100517.65
2017-10-05T20:49:20.204Z,100523.63
2017-10-05T20:51:47.666Z,100521.20
2017-10-05T20:54:15.138Z,100520.00
2017-10-05T20:56:42.658Z,100526.27
2017-10-05T20:59:10.124Z,100528.16
2017-10-05T21:01:37.685Z,100521.00
2017-10-05T21:04:05.158Z,100523.73
2017-10-05T21:06:32.637Z,100528.70
2017-10-05T21:09:00.156Z,100517.72
2017-10-05T21:11:27.605Z,100520.95
2017-10-05T21:13:55.077Z,100528.47
2017-10-05T21:16:22.533Z,100528.00
2017-10-05T21:18:50.011Z,100533.21
2017-10-05T21:21:17.541Z,100539.07
2017-10-05T21:23:45.029Z,100539.70
2017-10-05T21:26:12.480Z,100548.59
2017-10-05T21:28:40.013Z,100552.42
2017-10-05T21:31:07.573Z,100548.08
2017-10-05T21:33:35.044Z,100556.24
2017-10-05T21:36:02.608Z,100558.70
2017-10-05T21:38:30.106Z,100562.45
2017-10-05T21:40:57.561Z,100558.49
2017-10-05T21:43:25.008Z,100567.28
2017-10-05T21:45:52.496Z,100568.81
2017-10-05T21:48:19.973Z,100561.03
2017-10-05T21:50:47.440Z,100564.16
2017-10-05T21:53:14.991Z,100568.69
2017-10-05T21:55:42.545Z,100570.66
2017-10-05T21:58:10.002Z,100564.34
2017-10-05T22:00:37.560Z,100565.86
2017-10-05T22:03:05.125Z,100567.91
2017-10-05T22:05:32.608Z,100566.66
2017-10-05T22:08:00.064Z,100572.69
2017-10-05T22:10:27.600Z,100576.84
2017-10-05T22:12:55.076Z,100573.33
2017-10-05T22:15:22.556Z,100573.16
2017-10-05T22:17:50.020Z,100571.20
2017-10-05T22:20:17.501Z,100570.55
2017-10-05T22:22:44.963Z,100580.63
2017-10-05T22:25:12.432Z,100581.12
2017-10-05T22:27:39.931Z,100579.05
2017-10-05T22:30:07.404Z,100575.38
2017-10-05T22:32:34.857Z,100577.30
2017-10-05T22:35:02.329Z,100580.81
2017-10-05T22:37:29.780Z,100572.41
2017-10-05T22:39:57.256Z,100574.73
2017-10-05T22:42:24.713Z,100577.02
2017-10-05T22:44:52.201Z,100568.32
2017-10-05T22:47:19.677Z,100566.00
2017-10-05T22:49:47.131Z,100560.75
2017-10-05T22:52:14.608Z,100563.38
2017-10-05T22:54:42.058Z,100569.22
2017-10-05T22:57:09.585Z,100574.97
2017-10-05T22:59:37.040Z,100577.58
2017-10-05T23:02:04.536Z,100582.88
2017-10-05T23:04:31.992Z,100592.63
2017-10-05T23:06:59.485Z,100591.34
2017-10-05T23:09:26.956Z,100597.47
2017-10-05T23:11:54.515Z,100598.52
2017-10-05T23:14:21.971Z,100605.09
2017-10-05T23:16:49.445Z,100598.06
2017-10-05T23:19:16.900Z,100590.66
2017-10-05T23:21:44.391Z,100592.70
2017-10-05T23:24:11.841Z,100597.53
2017-10-05T23:26:39.319Z,100596.22
2017-10-05T23:29:06.788Z,100596.19
2017-10-05T23:31:34.269Z,100591.27
2017-10-05T23:34:01.736Z,100587.67
2017-10-05T23:36:29.208Z,100592.02
2017-10-05T23:38:56.669Z,100584.62
2017-10-05T23:41:24.217Z,100593.05
2017-10-05T23:43:51.688Z,100595.74
2017-10-05T23:46:19.167Z,100602.27
2017-10-05T23:48:46.636Z,100602.95
2017-10-05T23:51:14.091Z,100609.49
2017-10-05T23:53:41.564Z,100603.56
2017-10-05T23:56:09.016Z,100597.14
2017-10-05T23:58:36.597Z,100594.06
